Check time and date!

LGTT 191900Z 00000KT CAVOK 05/05 Q1021
TAF LGTT 191000Z 1912/1921 VRB05KT 9999 FEW025
--------------------------------------
LGMG 191600Z 00000KT CAVOK 15/08 Q1019
TAF LGMG 191000Z 1912/1921 18010KT 9999 FEW025 BECMG 1916/1918 VRB05KT
--------------------------------------
LGTG 191850Z 00000KT CAVOK 04/01 Q1021
--------------------------------------
LGEL 191850Z VRB03KT CAVOK 10/08 Q1021
TAF LGEL 191700Z 1918/2018 33007KT 9999 FEW025
--------------------------------------
LGAV 191850Z 29001KT CAVOK 09/05 Q1021 RMK NOSIG
TAF LGAV 191700Z 1918/2018 23007KT 9999 FEW025
--------------------------------------
LGAT 191900Z AUTO VRB02KT //// // ////// 11/06 Q1021 RE//
--------------------------------------
METAR LGAD 191920Z 00000KT 9999 FEW020 08/06 Q1022
METAR LGAL 191920Z 00000KT CAVOK 06/04 Q1021
METAR LGAV 191920Z 26002KT CAVOK 08/05 Q1021 NOSIG
METAR LGBL 191850Z 00000KT CAVOK 06/05 Q1021
METAR LGEL 191920Z VRB03KT CAVOK 09/07 Q1021
METAR LGHI 191850Z 00000KT CAVOK 08/06 Q1019
METAR LGIR 191920Z 18004KT 9999 FEW030 11/08 Q1021 NOSIG
METAR LGKL 191920Z 33005KT 9999 FEW025 09/06 Q1022
METAR LGKO 191850Z VRB03KT 9999 FEW025 13/09 Q1020
METAR LGKP 191920Z AUTO 30007KT //// // ////// 12/08 Q1021 RE//
METAR LGKR 191920Z 00000KT 9999 FEW018 10/08 Q1022 NOSIG
METAR LGKV 191920Z 00000KT CAVOK 07/06 Q1020
METAR LGLM 191920Z 00000KT CAVOK 07/05 Q1020
METAR LGLR 191850Z 10004KT CAVOK 07/05 Q1020 BLU
METAR LGMT 191920Z 23004KT CAVOK 10/04 Q1020
METAR LGPA 191920Z AUTO 07005KT //// // ////// 10/08 Q1021 RE//
METAR LGPZ 191850Z VRB02KT 9999 SCT025 12/06 Q1024
METAR LGRP 191920Z 22004KT 9999 FEW010 14/09 Q1019 NOSIG
METAR LGRX 191850Z 00000KT 9999 FEW020 09/08 Q1022
METAR LGSA 191920Z 00000KT 9999 FEW025 10/09 Q1021
METAR LGSO 191920Z AUTO VRB01KT //// // ////// 13/08 Q1021 RE//
METAR LGSR 191920Z AUTO 36005KT //// -RA ////// 10/07 Q1021 RE//
METAR LGTG 191850Z 00000KT CAVOK 04/01 Q1021 BLU
METAR LGTS 191920Z 10005KT CAVOK 08/04 Q1020 NOSIG

--------------------------------------
TAF LGAD 191700Z 1918/2003 32006KT 9999 SCT020 BECMG 2000/2002 10006KT
TAF LGAL 191700Z 1918/2003 10007KT CAVOK
TAF LGAV 191700Z 1918/2018 23007KT 9999 FEW025
TAF LGBL 191700Z 1918/2003 27006KT 9999 FEW030
TAF LGEL 191700Z 1918/2018 33007KT 9999 FEW025
TAF LGHI 191700Z 1918/2003 VRB05KT CAVOK
TAF LGIO 191700Z 1918/2003 VRB03KT 9999 FEW030 BECMG 2000/2002 5000 BR
TAF LGIR 191700Z 1918/2018 31010KT 9999 FEW020 SCT040 TEMPO 1919/2006 18010KT
TAF LGKC 191700Z 1918/2003 28012KT 9999 FEW030
TAF LGKF 191700Z 1918/2003 29010KT 9999 FEW018
TAF LGKL 191700Z 1918/2003 35006KT 9999 FEW020
TAF LGKO 191700Z 1918/2018 31008KT 9999 FEW020 PROB30 2001/2005 5000 BR SCT010
TAF LGKP 191700Z 1918/2003 29015KT 9999 FEW015 SCT025 BECMG 1922/1924 FEW012 BKN025
TAF LGKR 191700Z 1918/2018 VRB05KT 9999 FEW018 BECMG 2013/2015 31015KT PROB30 2001/2005 5000 BR SCT010
TAF LGKV 191700Z 1918/2003 VRB05KT CAVOK
TAF LGLM 191700Z 1918/2003 03012KT 9999 FEW025 BECMG 2000/2002 30006KT
TAF LGLR 191700Z 1918/2003 VRB03KT 9999 FEW030
TAF LGMK 191700Z 1918/2003 35010KT 9999 FEW015
TAF LGMT 191700Z 1918/2003 VRB05KT CAVOK
TAF LGPZ 191700Z 1918/2018 29010KT 9999 FEW020 TEMPO 1919/2009 VRB05KT PROB30 2001/2005 5000 BR SCT010
TAF LGRP 191700Z 1918/2018 24010KT 9999 FEW016
TAF LGRX 191700Z 1918/2003 30008KT 9999 SCT020 BECMG 2000/2002 06006KT
TAF LGSA 191700Z 1918/2018 30010KT 9999 FEW030 BECMG 2010/2012 30010G20KT
TAF LGSK 191700Z 1918/2003 VRB05KT 9999 FEW020
TAF LGSM 191700Z 1918/2003 VRB05KT 9999 FEW025
TAF LGSR 191700Z 1918/2018 30008KT 9999 SCT025
TAF LGST 191700Z 1918/2003 30008KT 9999 SCT030 BKN060
TAF LGSY 191700Z 1918/2003 34012KT 9999 FEW025
TAF LGTG 191700Z 1918/2003 30006KT 9999 FEW025
TAF LGTL 191700Z 1918/2003 35006KT 9999 FEW018 SCT025
TAF LGTS 191700Z 1918/2018 VRB03KT CAVOK PROB40 TEMPO 2003/2008 3000 BR SCT008 PROB30 TEMPO 2005/2007 0500 FG BKN002
TAF LGZA 191700Z 1918/2003 VRB05KT 9999 SCT020